Time;durP1;ratioP1;P1;durP2;ratioP2;P2;SDS_P1;SDS_P2;PMS_P1;PMS_P2;Temp;Humidity;BMP_temperature;BMP_pressure;BME280_temperature;BME280_humidity;BME280_pressure;Samples;Min_cycle;Max_cycle;Signal;HPM_P1;HPM_P2
2024/01/09 00:01:57;;;;;;;26.40;10.95;;;22.60;41.40;;;;;;10228274;28;20077;-49
2024/01/09 00:07:00;;;;;;;16.15;10.35;;;22.60;41.00;;;;;;10217947;28;20040;-43
2024/01/09 00:12:01;;;;;;;19.92;9.77;;;22.60;40.70;;;;;;10222446;28;20391;-44
2024/01/09 00:17:03;;;;;;;15.38;10.27;;;22.60;40.90;;;;;;10216704;28;20047;-48
2024/01/09 00:22:06;;;;;;;20.00;9.35;;;22.50;40.80;;;;;;10220701;28;20509;-46
2024/01/09 00:27:07;;;;;;;16.33;8.63;;;22.50;41.00;;;;;;10227854;28;20493;-43
2024/01/09 00:32:09;;;;;;;15.02;9.40;;;22.50;41.00;;;;;;10228541;28;20405;-47
2024/01/09 00:37:12;;;;;;;10.80;8.25;;;22.50;40.90;;;;;;10227170;28;20162;-44
2024/01/09 00:42:14;;;;;;;10.57;8.20;;;22.40;41.00;;;;;;10233381;28;20070;-44
2024/01/09 00:47:15;;;;;;;12.20;8.07;;;22.40;41.10;;;;;;10213227;28;20081;-44
2024/01/09 00:52:18;;;;;;;9.60;7.75;;;22.40;40.90;;;;;;10194389;28;20498;-43
2024/01/09 00:57:20;;;;;;;12.18;8.80;;;22.30;41.10;;;;;;10209645;28;20078;-43
2024/01/09 01:02:21;;;;;;;9.05;7.45;;;22.30;41.00;;;;;;10235111;28;20056;-45
2024/01/09 01:07:24;;;;;;;11.63;8.70;;;22.30;40.90;;;;;;10236636;28;20055;-46
2024/01/09 01:12:26;;;;;;;9.48;7.45;;;22.20;41.20;;;;;;10231533;28;20447;-44
2024/01/09 01:17:27;;;;;;;12.20;8.27;;;22.20;41.20;;;;;;10232559;28;20524;-43
2024/01/09 01:22:30;;;;;;;8.52;7.07;;;22.20;41.10;;;;;;10239329;28;20505;-49
2024/01/09 01:27:32;;;;;;;9.77;7.47;;;22.20;41.10;;;;;;10223286;28;20056;-43
2024/01/09 01:32:34;;;;;;;12.10;7.13;;;22.10;41.10;;;;;;10228674;28;20048;-45
2024/01/09 01:37:36;;;;;;;8.23;6.53;;;22.10;41.20;;;;;;10231591;28;20047;-48
2024/01/09 01:42:38;;;;;;;9.57;6.65;;;22.10;41.30;;;;;;10231667;28;20048;-47
2024/01/09 01:47:40;;;;;;;9.98;6.55;;;22.10;41.20;;;;;;10232522;28;20051;-45
2024/01/09 01:52:43;;;;;;;7.78;6.32;;;22.20;40.90;;;;;;10226593;28;20130;-43
2024/01/09 01:57:45;;;;;;;8.18;6.60;;;22.20;40.50;;;;;;10224855;28;20159;-45
2024/01/09 02:02:47;;;;;;;9.13;6.07;;;22.20;40.50;;;;;;10227582;28;20053;-46
2024/01/09 02:07:51;;;;;;;7.78;6.38;;;22.10;40.40;;;;;;10231740;28;20051;-43
2024/01/09 02:12:52;;;;;;;8.63;6.20;;;22.10;40.30;;;;;;10231216;28;20059;-45
2024/01/09 02:17:54;;;;;;;9.18;5.80;;;22.10;40.30;;;;;;10235828;28;20054;-45
2024/01/09 02:22:57;;;;;;;7.97;5.60;;;22.10;40.20;;;;;;10232575;28;20047;-46
2024/01/09 02:28:02;;;;;;;6.28;5.40;;;22.10;40.80;;;;;;10224398;28;20137;-43
2024/01/09 02:33:05;;;;;;;6.35;5.40;;;22.00;40.20;;;;;;10225467;28;20522;-45
2024/01/09 02:38:07;;;;;;;6.68;5.15;;;22.00;40.20;;;;;;10219751;28;20412;-42
2024/01/09 02:43:09;;;;;;;7.50;5.53;;;21.90;40.10;;;;;;10227237;28;20070;-47
2024/01/09 02:48:12;;;;;;;6.57;5.43;;;21.90;40.10;;;;;;10229671;28;20044;-46
2024/01/09 02:53:13;;;;;;;5.65;5.05;;;21.90;40.30;;;;;;10225073;28;20054;-42
2024/01/09 02:58:15;;;;;;;5.80;5.20;;;21.90;40.20;;;;;;10231684;28;20051;-45
2024/01/09 03:03:18;;;;;;;7.93;5.05;;;21.80;40.20;;;;;;10232295;28;20051;-42
2024/01/09 03:08:19;;;;;;;6.88;4.85;;;21.80;40.20;;;;;;10223665;28;20053;-42
2024/01/09 03:13:21;;;;;;;6.00;4.72;;;21.90;40.00;;;;;;10226869;28;20044;-42
2024/01/09 03:18:24;;;;;;;6.03;4.65;;;21.80;40.00;;;;;;10229666;28;20051;-44
2024/01/09 03:23:25;;;;;;;5.53;4.60;;;21.80;40.00;;;;;;10228658;28;20065;-44
2024/01/09 03:28:28;;;;;;;5.65;4.10;;;21.80;40.00;;;;;;10224619;28;20417;-43
2024/01/09 03:33:31;;;;;;;6.00;4.78;;;21.70;40.00;;;;;;10226807;28;20153;-45
2024/01/09 03:38:33;;;;;;;4.75;4.22;;;21.70;40.00;;;;;;10224957;28;20078;-46
2024/01/09 03:43:34;;;;;;;5.40;3.90;;;21.80;40.00;;;;;;10225797;28;20051;-41
2024/01/09 03:48:37;;;;;;;4.60;3.95;;;21.70;40.00;;;;;;10206062;28;20083;-46
2024/01/09 03:53:39;;;;;;;5.20;3.88;;;21.70;39.90;;;;;;10218351;28;20117;-43
2024/01/09 03:58:40;;;;;;;5.57;4.32;;;21.60;40.00;;;;;;10232496;28;20055;-45
2024/01/09 04:03:43;;;;;;;4.80;3.70;;;21.50;40.00;;;;;;10225920;28;20500;-42
2024/01/09 04:08:45;;;;;;;4.32;3.92;;;21.30;40.70;;;;;;10191472;28;20083;-42
2024/01/09 04:13:46;;;;;;;4.50;3.83;;;21.40;41.00;;;;;;10191989;28;20048;-42
2024/01/09 04:18:49;;;;;;;4.18;3.67;;;21.60;40.90;;;;;;10193305;28;20059;-44
2024/01/09 04:23:51;;;;;;;5.60;3.47;;;21.80;40.60;;;;;;10196666;28;20043;-44
2024/01/09 04:28:52;;;;;;;5.63;3.38;;;22.00;40.20;;;;;;10198297;28;20072;-41
2024/01/09 04:33:55;;;;;;;3.40;3.10;;;22.20;39.80;;;;;;10196740;28;20044;-42
2024/01/09 04:39:00;;;;;;;3.90;3.33;;;22.50;39.40;;;;;;10201736;28;20055;-43
2024/01/09 04:44:02;;;;;;;3.58;3.13;;;22.70;39.20;;;;;;10197432;28;20046;-41
2024/01/09 04:49:05;;;;;;;3.22;2.92;;;22.90;38.80;;;;;;10224220;28;20075;-43
2024/01/09 04:54:07;;;;;;;3.55;3.20;;;23.10;38.60;;;;;;10235754;28;20053;-44
2024/01/09 04:59:09;;;;;;;3.65;2.80;;;23.20;38.30;;;;;;10240099;28;20058;-43
2024/01/09 05:04:12;;;;;;;4.15;2.78;;;23.30;38.30;;;;;;10236297;28;20049;-43
2024/01/09 05:09:13;;;;;;;4.07;2.80;;;23.30;38.20;;;;;;10230411;28;20054;-44
2024/01/09 05:14:15;;;;;;;3.03;2.72;;;23.40;38.00;;;;;;10201318;28;20044;-41
2024/01/09 05:19:18;;;;;;;2.65;2.45;;;23.30;38.10;;;;;;10195733;28;20110;-43
2024/01/09 05:24:19;;;;;;;2.78;2.42;;;23.20;38.30;;;;;;10200554;29;20071;-42
2024/01/09 05:29:21;;;;;;;3.05;2.75;;;23.20;38.40;;;;;;10194973;29;20043;-44
2024/01/09 05:34:24;;;;;;;3.15;2.50;;;23.20;38.30;;;;;;10196380;28;20102;-42
2024/01/09 05:39:25;;;;;;;4.85;2.50;;;23.30;38.30;;;;;;10233817;28;20052;-42
2024/01/09 05:44:27;;;;;;;10.95;2.70;;;23.30;38.40;;;;;;10239619;28;20130;-42
2024/01/09 05:49:30;;;;;;;5.22;2.50;;;23.50;38.80;;;;;;10229779;28;20047;-42
2024/01/09 05:54:32;;;;;;;5.35;2.38;;;23.40;38.60;;;;;;10191798;28;20612;-42
2024/01/09 05:59:33;;;;;;;8.30;3.17;;;23.30;38.70;;;;;;10187451;28;20386;-44
2024/01/09 06:04:36;;;;;;;10.63;3.55;;;23.50;38.90;;;;;;10226994;28;20086;-44
2024/01/09 06:09:38;;;;;;;27.33;6.10;;;23.20;39.00;;;;;;10231681;28;20141;-46
2024/01/09 06:14:39;;;;;;;26.10;5.70;;;23.20;39.20;;;;;;10225993;28;20057;-44
2024/01/09 06:19:42;;;;;;;19.02;5.63;;;23.20;39.30;;;;;;10240133;28;20082;-46
2024/01/09 06:24:44;;;;;;;34.75;6.53;;;23.10;39.20;;;;;;10229690;28;20043;-43
2024/01/09 06:29:46;;;;;;;24.42;6.15;;;23.10;39.20;;;;;;10183419;28;20135;-42
2024/01/09 06:34:49;;;;;;;46.17;9.88;;;23.10;39.50;;;;;;10229850;28;20047;-42
2024/01/09 06:39:50;;;;;;;47.80;9.65;;;22.90;40.40;;;;;;10196084;28;20521;-45
2024/01/09 06:44:52;;;;;;;46.50;9.40;;;22.80;41.00;;;;;;10194685;28;20512;-42
2024/01/09 06:49:55;;;;;;;28.95;8.65;;;22.80;41.50;;;;;;10195931;28;20428;-45
2024/01/09 06:54:56;;;;;;;31.30;7.32;;;22.80;40.90;;;;;;10230882;28;20409;-44
2024/01/09 06:59:58;;;;;;;26.45;7.93;;;22.80;41.00;;;;;;10229538;28;20059;-45
2024/01/09 07:05:01;;;;;;;19.13;7.03;;;22.80;41.20;;;;;;10234336;28;20050;-44
2024/01/09 07:10:02;;;;;;;18.13;6.63;;;22.80;41.20;;;;;;10232014;28;20083;-45
2024/01/09 07:15:08;;;;;;;20.45;6.88;;;22.70;41.70;;;;;;10231718;28;20498;-42
2024/01/09 07:20:11;;;;;;;18.58;6.03;;;22.50;42.70;;;;;;10224700;28;20082;-45
2024/01/09 07:25:14;;;;;;;20.77;5.80;;;22.70;42.00;;;;;;10234375;28;20126;-44
2024/01/09 07:30:16;;;;;;;16.42;5.53;;;22.80;41.50;;;;;;10229962;28;20044;-42
2024/01/09 07:35:19;;;;;;;15.77;5.55;;;22.90;41.50;;;;;;10229178;28;20083;-47
2024/01/09 07:40:20;;;;;;;18.73;5.82;;;22.90;41.40;;;;;;10220480;28;20044;-45
2024/01/09 07:45:23;;;;;;;10.75;4.53;;;22.60;41.70;;;;;;10226731;28;20108;-46
2024/01/09 07:50:26;;;;;;;13.48;4.60;;;22.70;42.60;;;;;;10238561;28;20139;-42
2024/01/09 07:55:27;;;;;;;8.88;4.32;;;23.00;42.10;;;;;;10237684;28;20058;-42
2024/01/09 08:00:32;;;;;;;12.45;4.60;;;23.30;41.70;;;;;;10240028;28;20138;-43
2024/01/09 08:05:35;;;;;;;9.82;4.45;;;23.50;41.30;;;;;;10233597;28;20047;-43
2024/01/09 08:10:37;;;;;;;10.43;4.20;;;23.70;41.10;;;;;;10236126;28;20040;-43
2024/01/09 08:15:38;;;;;;;8.65;4.00;;;23.70;40.90;;;;;;10232351;28;20047;-43
2024/01/09 08:20:44;;;;;;;7.45;3.97;;;23.70;40.90;;;;;;10229799;28;20043;-42
2024/01/09 08:25:46;;;;;;;8.75;4.22;;;23.80;40.70;;;;;;10234949;28;20051;-44
2024/01/09 08:30:48;;;;;;;7.32;3.67;;;23.80;40.40;;;;;;10226232;28;20170;-47
2024/01/09 08:35:51;;;;;;;6.55;3.60;;;23.90;40.30;;;;;;10234482;28;20055;-42
2024/01/09 08:40:55;;;;;;;7.63;4.07;;;24.00;40.10;;;;;;10236113;28;20134;-45
2024/01/09 08:45:57;;;;;;;6.03;3.30;;;24.00;40.10;;;;;;10235612;28;20150;-44
2024/01/09 08:51:00;;;;;;;6.45;3.42;;;24.10;40.00;;;;;;10237181;28;20134;-45
2024/01/09 08:56:05;;;;;;;6.15;3.55;;;24.10;39.80;;;;;;10235865;28;20131;-43
2024/01/09 09:01:06;;;;;;;6.93;3.25;;;24.10;39.70;;;;;;10230085;28;20054;-42
2024/01/09 09:06:10;;;;;;;5.35;2.72;;;24.00;39.60;;;;;;10231449;28;20051;-42
2024/01/09 09:11:14;;;;;;;5.68;2.85;;;24.10;39.60;;;;;;10225364;28;20069;-45
2024/01/09 09:16:16;;;;;;;6.85;3.50;;;24.10;39.50;;;;;;10224481;28;20048;-44
2024/01/09 09:21:19;;;;;;;6.63;2.80;;;24.20;39.40;;;;;;10210133;28;20052;-43
2024/01/09 09:26:20;;;;;;;8.98;3.28;;;24.30;39.60;;;;;;10222310;28;20074;-45
2024/01/09 09:31:22;;;;;;;8.13;2.70;;;24.30;39.50;;;;;;10204054;28;20135;-43
2024/01/09 09:36:25;;;;;;;7.63;2.55;;;24.30;39.50;;;;;;10195895;28;20048;-42
2024/01/09 09:41:28;;;;;;;18.33;3.85;;;24.30;39.60;;;;;;10197828;28;20433;-44
2024/01/09 09:46:31;;;;;;;12.02;3.65;;;24.20;40.10;;;;;;10187066;28;20102;-43
2024/01/09 09:51:34;;;;;;;15.73;3.38;;;24.50;40.10;;;;;;10180238;29;20044;-44
2024/01/09 09:56:36;;;;;;;12.80;2.88;;;24.40;40.20;;;;;;10183086;29;20071;-42
2024/01/09 10:01:37;;;;;;;16.90;3.10;;;24.40;40.00;;;;;;10188130;28;20080;-46
2024/01/09 10:06:40;;;;;;;12.52;3.15;;;24.50;40.30;;;;;;10224133;28;67965;-42
2024/01/09 10:11:42;;;;;;;14.25;2.97;;;24.50;40.90;;;;;;10400615;28;20390;-43
2024/01/09 10:16:54;;;;;;;17.27;2.58;;;24.80;41.00;;;;;;10426298;28;20049;-43
2024/01/09 10:21:57;;;;;;;9.73;2.50;;;24.90;40.70;;;;;;10395223;28;20076;-44
2024/01/09 10:26:59;;;;;;;10.43;2.72;;;25.00;40.40;;;;;;10209155;28;20052;-44
2024/01/09 10:32:01;;;;;;;8.00;2.28;;;25.40;39.70;;;;;;10191822;28;20052;-42
2024/01/09 10:37:09;;;;;;;14.55;2.58;;;24.90;39.90;;;;;;10192871;28;20051;-44
2024/01/09 10:42:10;;;;;;;11.55;2.47;;;24.70;40.00;;;;;;10191931;28;20139;-46
2024/01/09 10:47:14;;;;;;;4.95;2.75;;;24.70;40.10;;;;;;10209576;28;20152;-43
2024/01/09 10:52:17;;;;;;;9.57;2.65;;;24.80;40.00;;;;;;10181479;29;20095;-43
2024/01/09 10:57:19;;;;;;;7.50;2.42;;;24.80;39.90;;;;;;10201249;28;20051;-41
2024/01/09 11:02:21;;;;;;;11.50;2.65;;;24.70;39.80;;;;;;10222197;28;20039;-42
2024/01/09 11:07:24;;;;;;;13.27;2.53;;;24.70;39.70;;;;;;10224281;28;20502;-43
2024/01/09 11:12:27;;;;;;;10.18;2.65;;;24.70;39.90;;;;;;10225329;29;20513;-47
2024/01/09 11:17:29;;;;;;;9.45;2.58;;;24.80;39.60;;;;;;10221122;28;20412;-44
2024/01/09 11:22:35;;;;;;;7.50;2.15;;;24.70;40.00;;;;;;10227761;28;20135;-44
2024/01/09 11:27:41;;;;;;;14.23;3.40;;;24.80;39.90;;;;;;10224404;28;20074;-42
2024/01/09 11:32:42;;;;;;;11.68;4.22;;;24.90;40.00;;;;;;10218565;28;20142;-42
2024/01/09 11:37:46;;;;;;;17.63;4.32;;;24.90;40.60;;;;;;10221998;28;20051;-44
2024/01/09 11:42:49;;;;;;;9.75;3.10;;;24.90;39.50;;;;;;10226313;28;20070;-42
2024/01/09 11:47:51;;;;;;;7.95;3.17;;;24.70;38.10;;;;;;10230669;28;20134;-44
2024/01/09 11:52:54;;;;;;;10.40;3.22;;;24.80;38.20;;;;;;10211859;28;20063;-44
2024/01/09 11:57:55;;;;;;;6.65;2.75;;;24.90;38.20;;;;;;10184777;28;20058;-42
2024/01/09 12:02:57;;;;;;;5.90;2.78;;;24.90;37.90;;;;;;10186961;28;20584;-44
2024/01/09 12:08:00;;;;;;;10.07;2.80;;;24.90;38.20;;;;;;10179691;29;20485;-42
2024/01/09 12:13:03;;;;;;;9.15;2.50;;;24.90;38.60;;;;;;10185894;28;20127;-42
2024/01/09 12:18:05;;;;;;;9.82;2.92;;;24.90;38.90;;;;;;10187747;29;20053;-42
2024/01/09 12:23:08;;;;;;;10.75;3.08;;;24.90;39.10;;;;;;10188327;28;20044;-42
2024/01/09 12:28:10;;;;;;;9.98;2.95;;;24.90;39.30;;;;;;10192625;28;20058;-45
2024/01/09 12:33:13;;;;;;;10.90;2.90;;;25.00;39.70;;;;;;10187633;28;20098;-44
2024/01/09 12:38:17;;;;;;;12.23;2.65;;;25.10;40.40;;;;;;10190312;28;20055;-44
2024/01/09 12:43:20;;;;;;;10.73;2.60;;;25.10;40.90;;;;;;10217234;28;20423;-42
2024/01/09 12:48:21;;;;;;;10.77;2.60;;;25.40;41.00;;;;;;10231332;28;20097;-41
2024/01/09 12:53:25;;;;;;;9.70;2.70;;;25.40;41.30;;;;;;10231940;28;20126;-47
2024/01/09 12:58:26;;;;;;;8.43;2.80;;;25.40;41.50;;;;;;10228757;28;20051;-46
2024/01/09 13:03:28;;;;;;;5.07;2.30;;;25.40;41.40;;;;;;10238421;28;20053;-43
2024/01/09 13:08:32;;;;;;;6.95;2.20;;;25.30;41.20;;;;;;10230760;28;20097;-42
2024/01/09 13:13:35;;;;;;;9.13;2.78;;;25.30;41.10;;;;;;10232081;28;20139;-47
2024/01/09 13:18:36;;;;;;;7.70;2.10;;;25.20;41.20;;;;;;10230642;28;20050;-46
2024/01/09 13:23:39;;;;;;;7.50;2.25;;;25.20;41.20;;;;;;10227602;28;20054;-45
2024/01/09 13:28:41;;;;;;;9.00;2.40;;;25.20;41.30;;;;;;10225174;28;20060;-44
2024/01/09 13:33:42;;;;;;;10.00;2.40;;;25.10;41.20;;;;;;10232998;28;20048;-42
2024/01/09 13:38:46;;;;;;;7.00;2.25;;;25.20;41.30;;;;;;10233276;28;20047;-43
2024/01/09 13:43:48;;;;;;;6.22;2.22;;;25.10;41.20;;;;;;10207641;28;20044;-42
2024/01/09 13:48:51;;;;;;;6.07;1.63;;;25.20;41.20;;;;;;10186240;28;20069;-43
2024/01/09 13:53:54;;;;;;;4.78;1.95;;;25.20;41.00;;;;;;10194020;28;20059;-42
2024/01/09 13:58:56;;;;;;;5.97;1.80;;;25.30;41.00;;;;;;10186411;28;20131;-42
2024/01/09 14:03:57;;;;;;;3.67;1.95;;;25.40;40.80;;;;;;10232422;28;20043;-42
2024/01/09 14:09:00;;;;;;;7.78;1.90;;;25.40;40.80;;;;;;10234904;28;20043;-43
2024/01/09 14:14:02;;;;;;;7.05;1.92;;;25.30;40.80;;;;;;10231956;28;20057;-43
2024/01/09 14:19:04;;;;;;;14.18;2.15;;;25.30;40.80;;;;;;10235884;28;20039;-45
2024/01/09 14:24:07;;;;;;;8.63;2.17;;;25.30;41.30;;;;;;10228981;28;20050;-42
2024/01/09 14:29:09;;;;;;;13.48;2.13;;;25.20;41.60;;;;;;10193373;28;20537;-42
2024/01/09 14:34:11;;;;;;;7.40;2.38;;;25.20;41.70;;;;;;10188929;28;20091;-45
2024/01/09 14:39:14;;;;;;;8.02;1.73;;;25.20;40.70;;;;;;10189736;28;20411;-44
2024/01/09 14:44:16;;;;;;;10.13;2.10;;;25.10;39.90;;;;;;10192331;29;20214;-44
2024/01/09 14:49:18;;;;;;;10.00;2.20;;;25.00;39.90;;;;;;10189121;29;20066;-42
2024/01/09 14:54:24;;;;;;;8.18;1.98;;;24.90;41.40;;;;;;10194978;29;20109;-41
2024/01/09 14:59:26;;;;;;;5.28;1.65;;;25.10;41.40;;;;;;10193513;28;20718;-41
2024/01/09 15:04:28;;;;;;;9.25;2.33;;;25.00;41.90;;;;;;10186386;28;20047;-43
2024/01/09 15:09:31;;;;;;;13.90;2.13;;;25.10;41.70;;;;;;10195577;28;20054;-42
2024/01/09 15:14:33;;;;;;;9.70;1.92;;;25.10;41.70;;;;;;10195154;29;20070;-43
2024/01/09 15:19:35;;;;;;;13.25;2.80;;;25.10;42.00;;;;;;10193591;28;20127;-45
2024/01/09 15:24:38;;;;;;;5.25;2.22;;;25.00;41.90;;;;;;10203748;28;20058;-44
2024/01/09 15:29:39;;;;;;;6.47;2.38;;;24.90;41.80;;;;;;10235847;28;20047;-43
2024/01/09 15:34:41;;;;;;;9.23;2.22;;;24.80;41.10;;;;;;10226290;28;20050;-44
2024/01/09 15:39:44;;;;;;;7.97;3.00;;;24.80;40.60;;;;;;10218951;29;20059;-43
2024/01/09 15:44:48;;;;;;;7.18;3.13;;;24.70;40.00;;;;;;10228323;28;20036;-41
2024/01/09 15:49:53;;;;;;;5.90;3.33;;;24.60;38.70;;;;;;10228142;28;20503;-42
2024/01/09 15:54:56;;;;;;;11.43;3.05;;;24.60;37.20;;;;;;10226775;28;20047;-42
2024/01/09 15:59:58;;;;;;;3.85;2.85;;;24.60;35.90;;;;;;10223689;28;20051;-47
2024/01/09 16:04:59;;;;;;;11.68;3.58;;;24.60;35.60;;;;;;10224739;28;20044;-46
2024/01/09 16:10:03;;;;;;;12.77;3.38;;;24.60;37.10;;;;;;10228599;28;20062;-42
2024/01/09 16:15:06;;;;;;;8.80;2.38;;;24.50;37.30;;;;;;10235504;28;20063;-45
2024/01/09 16:20:10;;;;;;;5.97;2.30;;;24.40;37.60;;;;;;10225128;28;20138;-43
2024/01/09 16:25:13;;;;;;;6.32;2.50;;;24.40;37.90;;;;;;10235591;28;20118;-43
2024/01/09 16:30:16;;;;;;;8.25;2.85;;;24.30;38.10;;;;;;10235106;28;20190;-42
2024/01/09 16:35:17;;;;;;;8.88;2.85;;;24.40;38.20;;;;;;10226441;28;20051;-43
2024/01/09 16:40:20;;;;;;;9.95;2.65;;;24.50;38.90;;;;;;10227219;28;20057;-47
2024/01/09 16:45:22;;;;;;;6.20;2.33;;;24.70;38.70;;;;;;10232382;28;20137;-45
2024/01/09 16:50:24;;;;;;;5.65;2.30;;;24.90;39.00;;;;;;10228798;28;20138;-48
2024/01/09 16:55:26;;;;;;;14.68;2.30;;;24.90;39.30;;;;;;10222144;28;20050;-44
2024/01/09 17:00:28;;;;;;;16.20;3.03;;;25.10;39.40;;;;;;10228489;28;20054;-45
2024/01/09 17:05:30;;;;;;;13.88;2.50;;;24.90;38.90;;;;;;10229075;28;20051;-45
2024/01/09 17:10:33;;;;;;;13.63;2.42;;;25.10;38.40;;;;;;10227974;28;20047;-44
2024/01/09 17:15:34;;;;;;;7.20;2.08;;;25.00;38.30;;;;;;10228697;28;20138;-43
2024/01/09 17:20:36;;;;;;;9.75;2.35;;;24.90;38.50;;;;;;10231161;28;20050;-46
2024/01/09 17:25:39;;;;;;;8.77;2.90;;;24.90;38.50;;;;;;10232635;28;20051;-43
2024/01/09 17:30:40;;;;;;;16.60;2.78;;;24.90;38.00;;;;;;10224086;28;20056;-42
2024/01/09 17:35:42;;;;;;;10.07;2.58;;;25.00;38.60;;;;;;10227899;28;20052;-43
2024/01/09 17:40:45;;;;;;;15.38;2.92;;;25.00;38.90;;;;;;10231449;28;20055;-45
2024/01/09 17:45:46;;;;;;;9.98;2.55;;;25.30;39.20;;;;;;10226619;28;20047;-46
2024/01/09 17:50:48;;;;;;;8.15;2.17;;;25.50;38.60;;;;;;10230260;28;20051;-46
2024/01/09 17:55:51;;;;;;;5.22;2.50;;;25.60;38.40;;;;;;10227853;28;20134;-45
2024/01/09 18:00:53;;;;;;;8.45;2.35;;;25.70;38.70;;;;;;10228321;28;20055;-43
2024/01/09 18:05:58;;;;;;;6.18;2.08;;;25.70;38.80;;;;;;10227403;28;20051;-44
2024/01/09 18:11:01;;;;;;;5.60;2.08;;;26.00;38.80;;;;;;10222483;28;20138;-43
2024/01/09 18:16:03;;;;;;;3.72;1.90;;;26.20;38.80;;;;;;10226367;28;20572;-43
2024/01/09 18:21:05;;;;;;;4.72;1.95;;;26.30;38.90;;;;;;10232519;28;20084;-45
2024/01/09 18:26:10;;;;;;;9.40;2.25;;;26.30;39.30;;;;;;10229083;28;20254;-45
2024/01/09 18:31:12;;;;;;;16.35;2.40;;;26.20;39.50;;;;;;10227826;28;20533;-45
2024/01/09 18:36:13;;;;;;;12.77;2.17;;;26.10;39.80;;;;;;10225301;28;20052;-46
2024/01/09 18:41:21;;;;;;;4.55;1.80;;;26.30;40.00;;;;;;10185067;28;20522;-43
2024/01/09 18:46:22;;;;;;;6.13;2.13;;;26.30;39.60;;;;;;10181619;29;20055;-43
2024/01/09 18:51:24;;;;;;;6.82;2.10;;;26.30;39.60;;;;;;10178694;28;20127;-45
2024/01/09 18:56:28;;;;;;;4.07;2.10;;;26.30;39.90;;;;;;10187514;28;20548;-43
2024/01/09 19:01:30;;;;;;;8.20;2.35;;;26.30;40.00;;;;;;10181046;29;20062;-43
2024/01/09 19:06:31;;;;;;;5.90;2.40;;;26.20;40.10;;;;;;10184084;28;20047;-46
2024/01/09 19:11:34;;;;;;;5.75;2.05;;;26.00;40.40;;;;;;10184424;28;20135;-45
2024/01/09 19:16:36;;;;;;;8.13;2.20;;;25.60;41.00;;;;;;10189766;28;20055;-45
2024/01/09 19:21:42;;;;;;;5.65;2.15;;;25.60;41.00;;;;;;10182357;29;20127;-45
2024/01/09 19:26:46;;;;;;;10.85;2.45;;;25.40;41.10;;;;;;10191620;28;20074;-45
2024/01/09 19:31:49;;;;;;;9.18;2.58;;;25.50;41.40;;;;;;10227847;28;20085;-45
2024/01/09 19:36:50;;;;;;;4.80;2.33;;;25.30;41.60;;;;;;10214029;28;20094;-43
2024/01/09 19:41:53;;;;;;;6.05;2.30;;;25.40;41.60;;;;;;10188900;28;20386;-45
2024/01/09 19:46:55;;;;;;;3.08;2.10;;;25.60;41.20;;;;;;10185978;28;20056;-42
2024/01/09 19:52:04;;;;;;;8.98;2.05;;;25.60;41.00;;;;;;10190128;28;20136;-45
2024/01/09 19:57:07;;;;;;;3.42;1.85;;;25.60;40.90;;;;;;10179464;28;20048;-46
2024/01/09 20:02:09;;;;;;;4.90;2.10;;;25.70;40.90;;;;;;10184500;28;20106;-43
2024/01/09 20:07:10;;;;;;;4.28;2.47;;;25.60;40.80;;;;;;10177880;28;20047;-46
2024/01/09 20:12:13;;;;;;;6.63;3.72;;;25.20;40.40;;;;;;10186288;28;20048;-45
2024/01/09 20:17:15;;;;;;;5.45;3.30;;;25.20;40.20;;;;;;10186405;28;20054;-46
2024/01/09 20:22:17;;;;;;;4.43;3.20;;;25.60;39.40;;;;;;10187578;28;20442;-43
2024/01/09 20:27:20;;;;;;;6.65;3.55;;;25.40;39.30;;;;;;10185486;28;20525;-44
2024/01/09 20:32:21;;;;;;;3.47;3.08;;;24.90;39.80;;;;;;10187768;28;20056;-44
2024/01/09 20:37:23;;;;;;;18.85;3.97;;;24.50;40.20;;;;;;10199080;28;20425;-45
2024/01/09 20:42:27;;;;;;;9.38;3.60;;;24.50;40.60;;;;;;10184752;28;20146;-46
2024/01/09 20:47:30;;;;;;;11.48;3.92;;;24.90;39.80;;;;;;10171898;28;20055;-44
2024/01/09 20:52:31;;;;;;;8.13;3.55;;;24.90;39.60;;;;;;10182049;28;20083;-44
2024/01/09 20:57:34;;;;;;;7.43;3.45;;;24.80;39.80;;;;;;10185088;28;20071;-45
2024/01/09 21:02:36;;;;;;;8.77;3.35;;;24.80;39.60;;;;;;10196798;28;20060;-45
2024/01/09 21:07:38;;;;;;;7.20;3.33;;;24.70;39.50;;;;;;10209833;28;20529;-43
2024/01/09 21:12:41;;;;;;;8.85;3.22;;;24.60;39.40;;;;;;10223663;28;20420;-46
2024/01/09 21:17:43;;;;;;;6.50;3.55;;;24.60;39.80;;;;;;10231619;28;20052;-44
2024/01/09 21:22:44;;;;;;;6.28;3.20;;;24.20;40.20;;;;;;10220641;28;20135;-45
2024/01/09 21:27:48;;;;;;;6.68;3.38;;;24.10;40.40;;;;;;10219616;28;20046;-47
2024/01/09 21:32:50;;;;;;;7.97;3.25;;;24.10;40.40;;;;;;10229195;28;20101;-46
2024/01/09 21:37:51;;;;;;;5.22;3.25;;;24.00;40.30;;;;;;10223384;28;20078;-44
2024/01/09 21:42:54;;;;;;;5.15;3.42;;;24.00;40.10;;;;;;10236264;28;20699;-45
2024/01/09 21:47:56;;;;;;;3.72;3.00;;;24.00;40.00;;;;;;10245235;28;20138;-44
2024/01/09 21:53:00;;;;;;;5.53;3.33;;;24.00;40.00;;;;;;10220136;28;20059;-43
2024/01/09 21:58:04;;;;;;;4.68;3.00;;;24.00;39.90;;;;;;10231568;28;20043;-48
2024/01/09 22:03:06;;;;;;;5.85;3.20;;;23.80;39.90;;;;;;10218951;28;20044;-43
2024/01/09 22:08:07;;;;;;;3.78;2.88;;;23.70;39.90;;;;;;10221415;28;20079;-48
2024/01/09 22:13:10;;;;;;;7.07;3.42;;;23.70;39.90;;;;;;10236504;28;20243;-45
2024/01/09 22:18:12;;;;;;;5.15;3.05;;;23.50;40.00;;;;;;10228710;28;20130;-51
2024/01/09 22:23:13;;;;;;;4.65;3.25;;;23.70;39.60;;;;;;10227785;28;20130;-47
2024/01/09 22:28:16;;;;;;;11.35;3.40;;;23.60;39.70;;;;;;10210139;28;20135;-49
2024/01/09 22:33:19;;;;;;;8.82;3.20;;;23.70;39.80;;;;;;10221294;28;20043;-50
2024/01/09 22:38:21;;;;;;;10.32;3.25;;;23.70;39.90;;;;;;10226571;28;20047;-49
2024/01/09 22:43:24;;;;;;;7.32;3.05;;;23.90;39.60;;;;;;10225676;28;20052;-50
2024/01/09 22:48:26;;;;;;;6.03;2.97;;;23.90;39.70;;;;;;10230022;28;20074;-52
2024/01/09 22:53:27;;;;;;;9.80;2.78;;;23.90;39.60;;;;;;10227817;28;20071;-49
2024/01/09 22:58:30;;;;;;;4.80;2.80;;;23.50;40.50;;;;;;10227529;28;20082;-45
2024/01/09 23:03:32;;;;;;;4.78;2.70;;;23.50;40.60;;;;;;10226355;28;20066;-47
2024/01/09 23:08:33;;;;;;;5.20;2.50;;;23.30;40.70;;;;;;10223765;28;20135;-47
2024/01/09 23:13:37;;;;;;;5.07;3.05;;;23.20;40.60;;;;;;10226379;28;20660;-47
2024/01/09 23:18:39;;;;;;;6.13;2.72;;;23.20;40.70;;;;;;10217138;28;20078;-46
2024/01/09 23:23:41;;;;;;;4.97;2.63;;;23.10;40.60;;;;;;10227714;28;20113;-44
2024/01/09 23:28:44;;;;;;;3.75;2.47;;;23.00;40.80;;;;;;10226783;28;20458;-47
2024/01/09 23:33:45;;;;;;;5.68;2.50;;;23.00;40.80;;;;;;10221811;28;20173;-43
2024/01/09 23:38:47;;;;;;;2.80;2.30;;;23.10;40.50;;;;;;10220487;28;20126;-43
2024/01/09 23:43:52;;;;;;;5.13;2.40;;;23.00;40.40;;;;;;10217661;28;20138;-46
2024/01/09 23:48:54;;;;;;;2.92;2.10;;;22.90;40.60;;;;;;10225924;28;20081;-43
2024/01/09 23:53:55;;;;;;;4.18;2.30;;;22.50;41.20;;;;;;10222204;28;20066;-45
2024/01/09 23:58:58;;;;;;;3.13;2.20;;;22.60;40.80;;;;;;10222937;28;20065;-45
